Ds Blue Wave — A8YK2 — position and weather

sailwx.info

Track history (hours):
 
Tides and Currents Weather Stations Pressure Air Temp Water Temp Dewpoint Dewpoint Depression Visibility Wind Speed Wind Dir Waves Ship Positions

Ds Blue Wave

Last reported at 2017-May-28 08:25 UTC. Time now 2017-Jul-25 06:45 UTC.
Position N 33°46' E 126°30'.
Warning: this ship's position is 57 days out of date.

Length 129 m; draft 5.7 m.

Type: Cargo ship. MMSI: 636092200.

Date/timePositionNaut miles runAvg speedWind from/ knotsBaromVisibWave heightAir tempDewpointWater temp
2017-May-28 08:25N 33°46' E 126°30'818.0
2017-May-28 07:59N 33°45' E 126°21'  
2017-May-25 13:03N 30°59' E 122°41'0 0.5
2017-May-25 12:57N 30°59' E 122°41'0 0.1
2017-May-25 12:21N 30°59' E 122°41'0 0.0
2017-May-25 00:51N 30°59' E 122°41'  
2017-May-21 10:20N 31°08' E 121°54'411.8
2017-May-21 10:00N 31°11' E 121°51'612.3
2017-May-21 09:30N 31°15' E 121°46'611.9
2017-May-21 09:00N 31°20' E 121°41'510.5
2017-May-21 08:30N 31°23' E 121°36'510.4
2017-May-21 08:00N 31°25' E 121°31'5 9.3
2017-May-21 07:30N 31°28' E 121°27'2 4.6
2017-May-21 07:00N 31°30' E 121°28'612.7
2017-May-21 06:30N 31°30' E 121°36'1 2.9
2017-May-21 06:00N 31°31' E 121°36'714.6
2017-May-21 05:31N 31°35' E 121°28'2 2.6
2017-May-21 04:55N 31°35' E 121°27'0 0.1
2017-May-21 04:28N 31°35' E 121°27'0 0.3
2017-May-21 04:01N 31°35' E 121°27'0 0.1
2017-May-21 03:28N 31°35' E 121°26'0 0.0
2017-May-21 02:58N 31°35' E 121°26'0 0.0
2017-May-21 02:31N 31°35' E 121°26'0 0.0
2017-May-21 02:01N 31°35' E 121°26'0 0.0
2017-May-21 01:28N 31°35' E 121°26'0 0.0
2017-May-21 00:58N 31°35' E 121°26'0 0.0
2017-May-21 00:31N 31°35' E 121°26'0 0.0
2017-May-20 23:58N 31°35' E 121°26'0 0.0
2017-May-20 23:28N 31°35' E 121°26'0 0.0
2017-May-20 22:58N 31°35' E 121°26'0 0.0
2017-May-20 22:28N 31°35' E 121°26'0 0.0
2017-May-20 21:58N 31°35' E 121°26'0 0.0
2017-May-20 21:28N 31°35' E 121°26'0 0.1
2017-May-20 20:40N 31°35' E 121°27'0 0.3
2017-May-20 20:28N 31°35' E 121°27'0 0.1
2017-May-20 19:58N 31°35' E 121°27'0 0.1
2017-May-20 19:28N 31°35' E 121°27'0 0.0
2017-May-20 18:58N 31°35' E 121°27'0 0.0
2017-May-20 18:28N 31°35' E 121°27'0 0.0
2017-May-20 18:01N 31°35' E 121°27'0 0.0
2017-May-20 17:25N 31°35' E 121°27'0 0.0
2017-May-20 17:01N 31°35' E 121°27'0 0.0
2017-May-20 16:28N 31°35' E 121°27'0 0.1
2017-May-20 15:58N 31°35' E 121°27'0 0.1
2017-May-20 14:31N 31°35' E 121°27'0 0.1
2017-May-20 13:28N 31°35' E 121°26'0 0.0
2017-May-20 13:01N 31°35' E 121°26'0 0.0
2017-May-20 12:31N 31°35' E 121°26'0 0.0
2017-May-20 11:49N 31°35' E 121°26'0 0.0
2017-May-20 11:28N 31°35' E 121°26'0 0.0
2017-May-20 10:58N 31°35' E 121°26'0 0.0
2017-May-20 10:28N 31°35' E 121°26'0 0.0
2017-May-20 09:58N 31°35' E 121°26'0 0.0
2017-May-20 09:28N 31°35' E 121°26'0 0.0
2017-May-20 08:55N 31°35' E 121°26'0 1.1
2017-May-20 08:30N 31°36' E 121°27'0 0.1
2017-May-20 08:00N 31°36' E 121°27'0 0.0
2017-May-20 07:30N 31°36' E 121°27'0 0.0
2017-May-20 06:57N 31°36' E 121°27'0 0.0
2017-May-20 06:30N 31°36' E 121°27'0 0.0
2017-May-20 05:57N 31°36' E 121°27'0 0.0
2017-May-20 05:30N 31°36' E 121°27'0 0.0
2017-May-20 05:00N 31°36' E 121°27'0 0.0
2017-May-20 04:21N 31°36' E 121°27'0 0.0
2017-May-20 04:00N 31°36' E 121°27'0 0.0
2017-May-20 03:27N 31°36' E 121°27'0 0.0
2017-May-20 02:57N 31°36' E 121°27'0 0.0
2017-May-20 02:30N 31°36' E 121°27'0 0.0
2017-May-20 01:51N 31°36' E 121°27'0 0.0
2017-May-20 01:30N 31°36' E 121°27'0 0.0
2017-May-20 00:51N 31°36' E 121°27'0 0.0
2017-May-20 00:30N 31°36' E 121°27'0 0.0
2017-May-20 00:00N 31°36' E 121°27'0 0.0
2017-May-19 23:27N 31°36' E 121°27'0 0.0
2017-May-19 22:57N 31°36' E 121°27'0 0.0
2017-May-19 22:27N 31°36' E 121°27'0 0.0
2017-May-19 22:00N 31°36' E 121°27'0 0.0
2017-May-19 21:24N 31°36' E 121°27'0 0.0
2017-May-19 21:00N 31°36' E 121°27'0 0.0
2017-May-19 20:30N 31°36' E 121°27'0 0.0
2017-May-19 19:57N 31°36' E 121°27'0 0.0
2017-May-19 19:30N 31°36' E 121°27'0 0.0
2017-May-19 18:57N 31°36' E 121°27'0 0.0
2017-May-19 18:30N 31°36' E 121°27'0 0.0
2017-May-19 18:00N 31°36' E 121°27'0 0.0
2017-May-19 17:30N 31°36' E 121°27'0 0.0
2017-May-19 16:57N 31°36' E 121°27'0 0.0
2017-May-19 16:27N 31°36' E 121°27'0 0.0
2017-May-19 16:00N 31°36' E 121°27'0 0.0
2017-May-19 15:27N 31°36' E 121°27'0 0.0
2017-May-19 15:00N 31°36' E 121°27'0 0.0
2017-May-19 13:57N 31°36' E 121°27'0 0.0
2017-May-19 13:30N 31°36' E 121°27'0 0.0
2017-May-19 12:51N 31°36' E 121°27'0 0.0
2017-May-19 12:21N 31°36' E 121°27'0 0.0
2017-May-19 12:00N 31°36' E 121°27'0 0.0
2017-May-19 11:27N 31°36' E 121°27'0 0.0
2017-May-19 10:57N 31°36' E 121°27'0 0.0
2017-May-19 10:30N 31°36' E 121°27'0 0.0
2017-May-19 10:00N 31°36' E 121°27'0 0.0
2017-May-19 09:27N 31°36' E 121°27'0 0.0
2017-May-19 09:00N 31°36' E 121°27'0 0.0
2017-May-19 08:30N 31°36' E 121°27'0 0.0
2017-May-19 07:57N 31°36' E 121°27'0 0.0
2017-May-19 07:30N 31°36' E 121°27'0 0.0
2017-May-19 07:00N 31°36' E 121°27'0 0.0
2017-May-19 06:27N 31°36' E 121°27'0 0.0
2017-May-19 05:57N 31°36' E 121°27'0 0.0
2017-May-19 05:27N 31°36' E 121°27'0 0.0
2017-May-19 05:00N 31°36' E 121°27'0 0.0
2017-May-19 04:30N 31°36' E 121°27'0 0.0
2017-May-19 04:00N 31°36' E 121°27'0 0.0
2017-May-19 03:27N 31°36' E 121°27'0 0.0
2017-May-19 02:51N 31°36' E 121°27'0 0.0
2017-May-19 02:27N 31°36' E 121°27'0 0.0
2017-May-19 01:57N 31°36' E 121°27'0 0.0
2017-May-19 01:30N 31°36' E 121°27'0 0.0
2017-May-19 01:00N 31°36' E 121°27'0 0.0
2017-May-19 00:30N 31°36' E 121°27'0 0.0
2017-May-18 23:57N 31°36' E 121°27'0 0.0
2017-May-18 23:30N 31°36' E 121°27'0 0.0
2017-May-18 23:00N 31°36' E 121°27'0 0.0
2017-May-18 22:30N 31°36' E 121°27'0 0.0
2017-May-18 22:00N 31°36' E 121°27'0 0.0
2017-May-18 21:30N 31°36' E 121°27'0 0.0
2017-May-18 21:00N 31°36' E 121°27'0 0.0
2017-May-18 20:27N 31°36' E 121°27'0 0.0
2017-May-18 19:57N 31°36' E 121°27'0 0.0
2017-May-18 19:30N 31°36' E 121°27'0 0.0
2017-May-18 19:00N 31°36' E 121°27'0 0.0
2017-May-18 18:27N 31°36' E 121°27'0 0.0
2017-May-18 18:00N 31°36' E 121°27'0 0.0
2017-May-18 17:24N 31°36' E 121°27'0 0.0
2017-May-18 16:51N 31°36' E 121°27'0 0.0
2017-May-18 16:27N 31°36' E 121°27'0 0.0
2017-May-18 16:00N 31°36' E 121°27'0 0.0
2017-May-18 15:24N 31°36' E 121°27'0 0.0
2017-May-18 14:57N 31°36' E 121°27'0 0.0
2017-May-18 14:27N 31°36' E 121°27'0 0.0
2017-May-18 13:30N 31°36' E 121°27'0 0.0
2017-May-18 13:00N 31°36' E 121°27'0 0.0
2017-May-18 12:30N 31°36' E 121°27'0 0.0
2017-May-18 11:54N 31°36' E 121°27'0 0.0
2017-May-18 11:30N 31°36' E 121°27'0 0.0
2017-May-18 11:00N 31°36' E 121°27'0 0.0
2017-May-18 10:30N 31°36' E 121°27'0 0.0
2017-May-18 09:57N 31°36' E 121°27'0 0.0
2017-May-18 09:30N 31°36' E 121°27'0 0.0
2017-May-18 09:00N 31°36' E 121°27'0 0.0
2017-May-18 08:30N 31°36' E 121°27'  
Track history (hours):
 
Tides and Currents Weather Stations Pressure Air Temp Water Temp Dewpoint Dewpoint Depression Visibility Wind Speed Wind Dir Waves Ship Positions

Ds Blue Wave

Last reported at 2017-May-28 08:25 UTC. Time now 2017-Jul-25 06:45 UTC.
Position N 33°46' E 126°30'.
Warning: this ship's position is 57 days out of date.

Length 129 m; draft 5.7 m.

Type: Cargo ship. MMSI: 636092200.

Date/timePositionNaut miles runAvg speedWind from/ knotsBaromVisibWave heightAir tempDewpointWater temp
2017-May-28 08:25N 33°46' E 126°30'818.0
2017-May-28 07:59N 33°45' E 126°21'  
2017-May-25 13:03N 30°59' E 122°41'0 0.5
2017-May-25 12:57N 30°59' E 122°41'0 0.1
2017-May-25 12:21N 30°59' E 122°41'0 0.0
2017-May-25 00:51N 30°59' E 122°41'  
2017-May-21 10:20N 31°08' E 121°54'411.8
2017-May-21 10:00N 31°11' E 121°51'612.3
2017-May-21 09:30N 31°15' E 121°46'611.9
2017-May-21 09:00N 31°20' E 121°41'510.5
2017-May-21 08:30N 31°23' E 121°36'510.4
2017-May-21 08:00N 31°25' E 121°31'5 9.3
2017-May-21 07:30N 31°28' E 121°27'2 4.6
2017-May-21 07:00N 31°30' E 121°28'612.7
2017-May-21 06:30N 31°30' E 121°36'1 2.9
2017-May-21 06:00N 31°31' E 121°36'714.6
2017-May-21 05:31N 31°35' E 121°28'2 2.6
2017-May-21 04:55N 31°35' E 121°27'0 0.1
2017-May-21 04:28N 31°35' E 121°27'0 0.3
2017-May-21 04:01N 31°35' E 121°27'0 0.1
2017-May-21 03:28N 31°35' E 121°26'0 0.0
2017-May-21 02:58N 31°35' E 121°26'0 0.0
2017-May-21 02:31N 31°35' E 121°26'0 0.0
2017-May-21 02:01N 31°35' E 121°26'0 0.0
2017-May-21 01:28N 31°35' E 121°26'0 0.0
2017-May-21 00:58N 31°35' E 121°26'0 0.0
2017-May-21 00:31N 31°35' E 121°26'0 0.0
2017-May-20 23:58N 31°35' E 121°26'0 0.0
2017-May-20 23:28N 31°35' E 121°26'0 0.0
2017-May-20 22:58N 31°35' E 121°26'0 0.0
2017-May-20 22:28N 31°35' E 121°26'0 0.0
2017-May-20 21:58N 31°35' E 121°26'0 0.0
2017-May-20 21:28N 31°35' E 121°26'0 0.1
2017-May-20 20:40N 31°35' E 121°27'0 0.3
2017-May-20 20:28N 31°35' E 121°27'0 0.1
2017-May-20 19:58N 31°35' E 121°27'0 0.1
2017-May-20 19:28N 31°35' E 121°27'0 0.0
2017-May-20 18:58N 31°35' E 121°27'0 0.0
2017-May-20 18:28N 31°35' E 121°27'0 0.0
2017-May-20 18:01N 31°35' E 121°27'0 0.0
2017-May-20 17:25N 31°35' E 121°27'0 0.0
2017-May-20 17:01N 31°35' E 121°27'0 0.0
2017-May-20 16:28N 31°35' E 121°27'0 0.1
2017-May-20 15:58N 31°35' E 121°27'0 0.1
2017-May-20 14:31N 31°35' E 121°27'0 0.1
2017-May-20 13:28N 31°35' E 121°26'0 0.0
2017-May-20 13:01N 31°35' E 121°26'0 0.0
2017-May-20 12:31N 31°35' E 121°26'0 0.0
2017-May-20 11:49N 31°35' E 121°26'0 0.0
2017-May-20 11:28N 31°35' E 121°26'0 0.0
2017-May-20 10:58N 31°35' E 121°26'0 0.0
2017-May-20 10:28N 31°35' E 121°26'0 0.0
2017-May-20 09:58N 31°35' E 121°26'0 0.0
2017-May-20 09:28N 31°35' E 121°26'0 0.0
2017-May-20 08:55N 31°35' E 121°26'0 1.1
2017-May-20 08:30N 31°36' E 121°27'0 0.1
2017-May-20 08:00N 31°36' E 121°27'0 0.0
2017-May-20 07:30N 31°36' E 121°27'0 0.0
2017-May-20 06:57N 31°36' E 121°27'0 0.0
2017-May-20 06:30N 31°36' E 121°27'0 0.0
2017-May-20 05:57N 31°36' E 121°27'0 0.0
2017-May-20 05:30N 31°36' E 121°27'0 0.0
2017-May-20 05:00N 31°36' E 121°27'0 0.0
2017-May-20 04:21N 31°36' E 121°27'0 0.0
2017-May-20 04:00N 31°36' E 121°27'0 0.0
2017-May-20 03:27N 31°36' E 121°27'0 0.0
2017-May-20 02:57N 31°36' E 121°27'0 0.0
2017-May-20 02:30N 31°36' E 121°27'0 0.0
2017-May-20 01:51N 31°36' E 121°27'0 0.0
2017-May-20 01:30N 31°36' E 121°27'0 0.0
2017-May-20 00:51N 31°36' E 121°27'0 0.0
2017-May-20 00:30N 31°36' E 121°27'0 0.0
2017-May-20 00:00N 31°36' E 121°27'0 0.0
2017-May-19 23:27N 31°36' E 121°27'0 0.0
2017-May-19 22:57N 31°36' E 121°27'0 0.0
2017-May-19 22:27N 31°36' E 121°27'0 0.0
2017-May-19 22:00N 31°36' E 121°27'0 0.0
2017-May-19 21:24N 31°36' E 121°27'0 0.0
2017-May-19 21:00N 31°36' E 121°27'0 0.0
2017-May-19 20:30N 31°36' E 121°27'0 0.0
2017-May-19 19:57N 31°36' E 121°27'0 0.0
2017-May-19 19:30N 31°36' E 121°27'0 0.0
2017-May-19 18:57N 31°36' E 121°27'0 0.0
2017-May-19 18:30N 31°36' E 121°27'0 0.0
2017-May-19 18:00N 31°36' E 121°27'0 0.0
2017-May-19 17:30N 31°36' E 121°27'0 0.0
2017-May-19 16:57N 31°36' E 121°27'0 0.0
2017-May-19 16:27N 31°36' E 121°27'0 0.0
2017-May-19 16:00N 31°36' E 121°27'0 0.0
2017-May-19 15:27N 31°36' E 121°27'0 0.0
2017-May-19 15:00N 31°36' E 121°27'0 0.0
2017-May-19 13:57N 31°36' E 121°27'0 0.0
2017-May-19 13:30N 31°36' E 121°27'0 0.0
2017-May-19 12:51N 31°36' E 121°27'0 0.0
2017-May-19 12:21N 31°36' E 121°27'0 0.0
2017-May-19 12:00N 31°36' E 121°27'0 0.0
2017-May-19 11:27N 31°36' E 121°27'0 0.0
2017-May-19 10:57N 31°36' E 121°27'0 0.0
2017-May-19 10:30N 31°36' E 121°27'0 0.0
2017-May-19 10:00N 31°36' E 121°27'0 0.0
2017-May-19 09:27N 31°36' E 121°27'0 0.0
2017-May-19 09:00N 31°36' E 121°27'0 0.0
2017-May-19 08:30N 31°36' E 121°27'0 0.0
2017-May-19 07:57N 31°36' E 121°27'0 0.0
2017-May-19 07:30N 31°36' E 121°27'0 0.0
2017-May-19 07:00N 31°36' E 121°27'0 0.0
2017-May-19 06:27N 31°36' E 121°27'0 0.0
2017-May-19 05:57N 31°36' E 121°27'0 0.0
2017-May-19 05:27N 31°36' E 121°27'0 0.0
2017-May-19 05:00N 31°36' E 121°27'0 0.0
2017-May-19 04:30N 31°36' E 121°27'0 0.0
2017-May-19 04:00N 31°36' E 121°27'0 0.0
2017-May-19 03:27N 31°36' E 121°27'0 0.0
2017-May-19 02:51N 31°36' E 121°27'0 0.0
2017-May-19 02:27N 31°36' E 121°27'0 0.0
2017-May-19 01:57N 31°36' E 121°27'0 0.0
2017-May-19 01:30N 31°36' E 121°27'0 0.0
2017-May-19 01:00N 31°36' E 121°27'0 0.0
2017-May-19 00:30N 31°36' E 121°27'0 0.0
2017-May-18 23:57N 31°36' E 121°27'0 0.0
2017-May-18 23:30N 31°36' E 121°27'0 0.0
2017-May-18 23:00N 31°36' E 121°27'0 0.0
2017-May-18 22:30N 31°36' E 121°27'0 0.0
2017-May-18 22:00N 31°36' E 121°27'0 0.0
2017-May-18 21:30N 31°36' E 121°27'0 0.0
2017-May-18 21:00N 31°36' E 121°27'0 0.0
2017-May-18 20:27N 31°36' E 121°27'0 0.0
2017-May-18 19:57N 31°36' E 121°27'0 0.0
2017-May-18 19:30N 31°36' E 121°27'0 0.0
2017-May-18 19:00N 31°36' E 121°27'0 0.0
2017-May-18 18:27N 31°36' E 121°27'0 0.0
2017-May-18 18:00N 31°36' E 121°27'0 0.0
2017-May-18 17:24N 31°36' E 121°27'0 0.0
2017-May-18 16:51N 31°36' E 121°27'0 0.0
2017-May-18 16:27N 31°36' E 121°27'0 0.0
2017-May-18 16:00N 31°36' E 121°27'0 0.0
2017-May-18 15:24N 31°36' E 121°27'0 0.0
2017-May-18 14:57N 31°36' E 121°27'0 0.0
2017-May-18 14:27N 31°36' E 121°27'0 0.0
2017-May-18 13:30N 31°36' E 121°27'0 0.0
2017-May-18 13:00N 31°36' E 121°27'0 0.0
2017-May-18 12:30N 31°36' E 121°27'0 0.0
2017-May-18 11:54N 31°36' E 121°27'0 0.0
2017-May-18 11:30N 31°36' E 121°27'0 0.0
2017-May-18 11:00N 31°36' E 121°27'0 0.0
2017-May-18 10:30N 31°36' E 121°27'0 0.0
2017-May-18 09:57N 31°36' E 121°27'0 0.0
2017-May-18 09:30N 31°36' E 121°27'0 0.0
2017-May-18 09:00N 31°36' E 121°27'0 0.0
2017-May-18 08:30N 31°36' E 121°27'  

Dump ship's entire track history